Drexel, Ohio
Current Conditions -  °F | °C
As of 12:53 AM on Monday 22 Dec 2014 (Local Time) from KMGY Reporting Station
Clear Clear  
Wind Chill: 19°   Ceiling: Unl
Heat Index: 28°   Visibility: 8mi
Dew Point: 24°   Wind: 10mph
Humidity: 85%   Direction: 80°E
Pressure: 30.07"   Gusts: NA
Location:  39.7548°N, 84.3084°W
Report Text: KMGY 220553Z AUTO 08009KT 8SM CLR M02/M04 A3007 RMK AO2 SLP193 T10221044 10000 21022 58018
Loading
Personal Weather Stations






























Interactive Weather Map New forecast layout! Learn more

10-Day Weather Forecast

Advertisements
Track Severe Weather on mobile